Time;durP1;ratioP1;P1;durP2;ratioP2;P2;SDS_P1;SDS_P2;PMS_P1;PMS_P2;Temp;Humidity;BMP_temperature;BMP_pressure;BME280_temperature;BME280_humidity;BME280_pressure;Samples;Min_cycle;Max_cycle;Signal;HPM_P1;HPM_P2
2024/01/18 00:02:10;;;;;;;14.52;8.85;;;;;;;-1.14;100.00;99393.06;5115259;28;20044;-80
2024/01/18 00:04:37;;;;;;;13.90;9.07;;;;;;;-1.16;100.00;99390.84;5095480;28;20076;-79
2024/01/18 00:07:04;;;;;;;17.63;8.32;;;;;;;-1.17;100.00;99397.19;5108239;28;20082;-79
2024/01/18 00:09:33;;;;;;;13.88;8.35;;;;;;;-1.17;100.00;99397.19;5094207;28;20113;-79
2024/01/18 00:12:00;;;;;;;14.77;8.63;;;;;;;-1.18;100.00;99400.94;5115042;28;20154;-79
2024/01/18 00:14:27;;;;;;;14.77;7.78;;;;;;;-1.17;100.00;99412.13;5096107;28;20075;-80
2024/01/18 00:16:54;;;;;;;15.45;8.30;;;;;;;-1.17;100.00;99419.97;5072689;28;20048;-80
2024/01/18 00:19:20;;;;;;;14.40;8.32;;;;;;;-1.18;100.00;99421.09;5092498;28;20054;-79
2024/01/18 00:21:47;;;;;;;15.23;8.65;;;;;;;-1.20;100.00;99424.09;5113976;28;20119;-80
2024/01/18 00:24:14;;;;;;;15.80;8.13;;;;;;;-1.21;100.00;99432.34;5108428;28;20048;-81
2024/01/18 00:26:40;;;;;;;18.77;7.93;;;;;;;-1.22;100.00;99430.88;5111648;28;20055;-80
2024/01/18 00:29:07;;;;;;;10.73;7.38;;;;;;;-1.23;100.00;99439.84;5085586;28;20078;-81
2024/01/18 00:31:33;;;;;;;11.90;8.00;;;;;;;-1.24;100.00;99433.13;5092617;28;20043;-80
2024/01/18 00:34:00;;;;;;;13.32;7.95;;;;;;;-1.24;100.00;99439.09;5118260;28;20574;-80
2024/01/18 00:36:27;;;;;;;12.25;7.80;;;;;;;-1.23;100.00;99440.56;5108623;28;20040;-81
2024/01/18 00:38:54;;;;;;;11.60;7.50;;;;;;;-1.24;100.00;99435.75;5105360;28;20147;-81
2024/01/18 00:41:21;;;;;;;16.80;7.20;;;;;;;-1.26;100.00;99440.59;5113329;28;20044;-80
2024/01/18 00:43:48;;;;;;;10.65;6.55;;;;;;;-1.27;100.00;99444.34;5095550;28;20155;-80
2024/01/18 00:46:19;;;;;;;14.25;6.43;;;;;;;-1.28;100.00;99445.47;5107277;28;20045;-80
2024/01/18 00:48:46;;;;;;;11.75;6.43;;;;;;;-1.29;100.00;99444.75;5094068;28;20127;-79
2024/01/18 00:51:12;;;;;;;9.10;6.32;;;;;;;-1.30;100.00;99445.13;5103495;28;20610;-79
2024/01/18 00:53:39;;;;;;;10.25;6.05;;;;;;;-1.31;100.00;99459.31;5110692;28;20100;-81
2024/01/18 00:56:09;;;;;;;19.38;6.80;;;;;;;-1.33;100.00;99449.25;5109065;28;20105;-80
2024/01/18 00:58:37;;;;;;;9.57;5.82;;;;;;;-1.35;100.00;99459.34;5108892;28;20533;-81
2024/01/18 01:01:05;;;;;;;7.72;5.10;;;;;;;-1.37;100.00;99464.22;5094666;28;20079;-81
2024/01/18 01:03:32;;;;;;;8.18;5.55;;;;;;;-1.38;100.00;99458.25;5108470;28;20037;-81
2024/01/18 01:05:58;;;;;;;10.98;4.82;;;;;;;-1.39;100.00;99467.22;5093882;28;20055;-81
2024/01/18 01:08:26;;;;;;;6.43;4.15;;;;;;;-1.38;100.00;99468.69;5107839;28;20253;-80
2024/01/18 01:10:53;;;;;;;8.40;4.35;;;;;;;-1.37;100.00;99485.09;5109709;28;20131;-80
2024/01/18 01:13:20;;;;;;;8.02;4.32;;;;;;;-1.38;100.00;99496.66;5105531;28;20103;-76
2024/01/18 01:15:47;;;;;;;16.23;4.43;;;;;;;-1.39;100.00;99489.97;5104582;28;20048;-76
2024/01/18 01:18:14;;;;;;;5.88;3.78;;;;;;;-1.40;100.00;99493.72;5105875;27;20066;-76
2024/01/18 01:20:41;;;;;;;5.50;3.78;;;;;;;-1.42;100.00;99496.69;5107013;28;20052;-76
2024/01/18 01:23:07;;;;;;;7.68;4.35;;;;;;;-1.43;100.00;99500.44;5105304;28;20040;-76
2024/01/18 01:25:34;;;;;;;5.82;4.10;;;;;;;-1.45;100.00;99499.34;5110583;28;20049;-76
2024/01/18 01:28:00;;;;;;;9.13;4.25;;;;;;;-1.47;100.00;99493.78;5105248;28;20089;-77
2024/01/18 01:30:27;;;;;;;13.35;5.07;;;;;;;-1.50;100.00;99497.16;5104321;28;20052;-77
2024/01/18 01:32:54;;;;;;;4.22;3.88;;;;;;;-1.53;100.00;99503.88;5110657;28;20047;-77
2024/01/18 01:35:20;;;;;;;8.65;4.68;;;;;;;-1.57;100.00;99500.56;5106291;28;20319;-76
2024/01/18 01:37:47;;;;;;;9.48;4.65;;;;;;;-1.59;100.00;99504.69;5106595;28;20041;-77
2024/01/18 01:40:14;;;;;;;7.72;4.45;;;;;;;-1.62;100.00;99503.63;5088368;28;20133;-76
2024/01/18 01:42:40;;;;;;;7.00;3.92;;;;;;;-1.65;100.00;99506.25;5108250;28;20049;-77
2024/01/18 01:45:07;;;;;;;6.10;4.18;;;;;;;-1.66;100.00;99512.59;5116062;28;20724;-77
2024/01/18 01:47:34;;;;;;;3.40;3.08;;;;;;;-1.70;100.00;99515.97;5090395;28;20048;-77
2024/01/18 01:50:01;;;;;;;7.45;4.07;;;;;;;-1.72;100.00;99520.09;5104602;28;20491;-78
2024/01/18 01:52:30;;;;;;;6.40;3.65;;;;;;;-1.76;100.00;99522.00;5107719;28;20055;-77
2024/01/18 01:54:57;;;;;;;4.10;3.53;;;;;;;-1.83;100.00;99514.22;5075029;28;20040;-77
2024/01/18 01:57:25;;;;;;;6.32;3.72;;;;;;;-1.88;100.00;99519.84;5105119;28;20111;-76
2024/01/18 01:59:53;;;;;;;11.70;3.70;;;;;;;-1.91;100.00;99523.94;5090098;28;20919;-76
2024/01/18 02:02:22;;;;;;;6.65;3.85;;;;;;;-1.96;100.00;99532.19;5091725;28;20064;-76
2024/01/18 02:04:50;;;;;;;4.45;3.38;;;;;;;-1.97;100.00;99522.88;5112124;28;20442;-77
2024/01/18 02:07:18;;;;;;;7.18;4.10;;;;;;;-2.00;100.00;99522.94;5107835;28;20131;-77
2024/01/18 02:09:46;;;;;;;5.57;3.65;;;;;;;-2.02;100.00;99526.66;5091500;28;20269;-76
2024/01/18 02:12:14;;;;;;;8.00;3.63;;;;;;;-2.04;100.00;99526.28;5106764;28;20431;-77
2024/01/18 02:14:41;;;;;;;7.97;4.03;;;;;;;-2.06;100.00;99530.41;5104782;28;20044;-77
2024/01/18 02:17:08;;;;;;;9.27;3.90;;;;;;;-2.10;100.00;99530.44;5110234;28;20104;-78
2024/01/18 02:19:34;;;;;;;3.65;3.22;;;;;;;-2.11;100.00;99539.38;5111955;28;20056;-78
2024/01/18 02:22:03;;;;;;;6.47;3.60;;;;;;;-2.15;100.00;99540.53;5095103;28;20044;-79
2024/01/18 02:24:40;;;;;;;10.88;4.07;;;;;;;-2.18;100.00;99530.84;5088561;28;20135;-76
2024/01/18 02:27:07;;;;;;;14.30;3.80;;;;;;;-2.20;100.00;99535.69;5106671;28;20045;-76
2024/01/18 02:29:33;;;;;;;6.28;3.97;;;;;;;-2.20;100.00;99535.69;5105572;28;20041;-76
2024/01/18 02:32:00;;;;;;;5.75;3.60;;;;;;;-2.26;100.00;99542.44;5104661;28;20539;-76
2024/01/18 02:34:26;;;;;;;4.07;3.60;;;;;;;-2.30;100.00;99542.44;5110447;28;20499;-76
2024/01/18 02:36:53;;;;;;;10.35;3.33;;;;;;;-2.33;100.00;99534.66;5104830;28;20165;-76
2024/01/18 02:39:20;;;;;;;9.77;3.88;;;;;;;-2.37;100.00;99540.63;5093031;28;20135;-77
2024/01/18 02:41:47;;;;;;;3.35;3.03;;;;;;;-2.40;100.00;99541.38;5107951;28;20068;-77
2024/01/18 02:44:14;;;;;;;7.72;3.58;;;;;;;-2.46;100.00;99535.09;5087730;28;20865;-77
2024/01/18 02:46:41;;;;;;;10.38;4.22;;;;;;;-2.54;100.00;99540.72;5106887;28;20576;-77
2024/01/18 02:49:07;;;;;;;5.25;3.50;;;;;;;-2.57;100.00;99547.44;5104772;28;20051;-77
2024/01/18 02:51:34;;;;;;;9.10;3.53;;;;;;;-2.57;100.00;99547.44;5102787;28;20055;-77
2024/01/18 02:54:01;;;;;;;10.25;3.60;;;;;;;-2.58;100.00;99543.34;5105514;28;20094;-77
2024/01/18 02:56:27;;;;;;;9.20;3.58;;;;;;;-2.58;100.00;99547.81;5088323;28;20047;-76
2024/01/18 02:58:54;;;;;;;3.15;2.75;;;;;;;-2.58;100.00;99547.81;5106796;28;20103;-76
2024/01/18 03:01:20;;;;;;;10.30;3.47;;;;;;;-2.63;100.00;99541.13;5087035;28;20067;-77
2024/01/18 03:03:47;;;;;;;3.95;3.00;;;;;;;-2.63;100.00;99548.94;5107359;28;20048;-77
2024/01/18 03:06:14;;;;;;;5.03;3.42;;;;;;;-2.66;100.00;99554.91;5109124;28;20076;-77
2024/01/18 03:08:40;;;;;;;5.32;2.63;;;;;;;-2.72;100.00;99543.38;5108651;28;20075;-77
2024/01/18 03:11:07;;;;;;;6.43;3.80;;;;;;;-2.78;100.00;99548.25;5101753;28;20079;-77
2024/01/18 03:13:33;;;;;;;3.83;3.20;;;;;;;-2.80;100.00;99553.09;5104089;28;20055;-77
2024/01/18 03:16:00;;;;;;;5.30;3.17;;;;;;;-2.79;100.00;99551.22;5110837;28;20517;-77
2024/01/18 03:18:27;;;;;;;3.50;2.70;;;;;;;-2.82;100.00;99557.97;5107817;28;20789;-77
2024/01/18 03:20:53;;;;;;;5.72;3.20;;;;;;;-2.86;100.00;99548.66;5103759;28;20055;-77
2024/01/18 03:23:20;;;;;;;7.75;2.88;;;;;;;-2.91;100.00;99559.47;5118046;28;20536;-78
2024/01/18 03:25:47;;;;;;;9.05;2.67;;;;;;;-2.93;100.00;99549.44;5115555;28;20066;-78
2024/01/18 03:28:15;;;;;;;7.60;2.90;;;;;;;-2.95;100.00;99553.53;5076786;28;20044;-78
2024/01/18 03:30:42;;;;;;;5.40;2.85;;;;;;;-3.02;100.00;99557.63;5098854;28;20036;-79
2024/01/18 03:33:09;;;;;;;3.45;2.90;;;;;;;-3.06;100.00;99551.69;5095764;28;20056;-79
2024/01/18 03:35:39;;;;;;;5.28;2.92;;;;;;;-3.11;100.00;99554.66;5116549;28;20102;-78
2024/01/18 03:38:07;;;;;;;3.25;2.97;;;;;;;-3.14;100.00;99559.88;5105735;28;20041;-78
2024/01/18 03:40:35;;;;;;;8.75;3.38;;;;;;;-3.16;100.00;99557.66;5076445;28;20086;-78
2024/01/18 03:43:01;;;;;;;4.30;3.03;;;;;;;-3.15;100.00;99553.19;5117090;28;20040;-79
2024/01/18 03:45:28;;;;;;;4.53;2.63;;;;;;;-3.20;100.00;99553.59;5118028;28;20805;-78
2024/01/18 03:47:55;;;;;;;5.15;3.33;;;;;;;-3.21;100.00;99557.31;5073495;28;20049;-78
2024/01/18 03:50:22;;;;;;;3.33;3.03;;;;;;;-3.24;100.00;99555.44;5111845;28;20823;-78
2024/01/18 03:52:48;;;;;;;3.10;2.58;;;;;;;-3.29;100.00;99561.78;5092036;28;20040;-79
2024/01/18 03:55:15;;;;;;;5.43;2.70;;;;;;;-3.28;100.00;99558.06;5113826;28;20039;-78
2024/01/18 03:57:42;;;;;;;4.90;2.80;;;;;;;-3.32;100.00;99562.53;5112082;28;20036;-78
2024/01/18 04:00:09;;;;;;;4.20;3.30;;;;;;;-3.33;100.00;99561.03;5112081;28;20625;-78
2024/01/18 04:02:36;;;;;;;8.88;3.22;;;;;;;-3.37;100.00;99566.25;5109223;28;20040;-78
2024/01/18 04:05:04;;;;;;;5.80;2.88;;;;;;;-3.43;100.00;99567.72;5107477;28;20040;-78
2024/01/18 04:07:31;;;;;;;5.00;2.70;;;;;;;-3.46;100.00;99562.53;5085122;28;20060;-78
2024/01/18 04:10:02;;;;;;;3.85;2.80;;;;;;;-3.47;100.00;99566.97;5092977;28;20059;-78
2024/01/18 04:12:29;;;;;;;2.92;2.45;;;;;;;-3.45;100.00;99561.41;5113034;28;20058;-78
2024/01/18 04:14:56;;;;;;;2.72;2.45;;;;;;;-3.42;100.00;99566.59;5108870;28;20041;-78
2024/01/18 04:17:22;;;;;;;5.68;2.22;;;;;;;-3.46;100.00;99572.94;5088464;28;20044;-77
2024/01/18 04:19:49;;;;;;;2.22;2.03;;;;;;;-3.50;100.00;99569.59;5108897;28;20102;-78
2024/01/18 04:22:16;;;;;;;3.50;2.33;;;;;;;-3.53;100.00;99572.94;5089289;28;20555;-78
2024/01/18 04:24:42;;;;;;;2.75;2.25;;;;;;;-3.54;100.00;99579.25;5087958;28;20053;-78
2024/01/18 04:27:09;;;;;;;4.07;2.47;;;;;;;-3.54;100.00;99585.19;5106825;28;20045;-78
2024/01/18 04:29:36;;;;;;;3.45;2.30;;;;;;;-3.56;100.00;99589.28;5108290;28;20106;-78
2024/01/18 04:32:03;;;;;;;3.50;2.25;;;;;;;-3.56;100.00;99592.63;5108681;28;20409;-78
2024/01/18 04:34:29;;;;;;;4.97;1.92;;;;;;;-3.59;100.00;99585.56;5094463;28;20053;-78
2024/01/18 04:36:56;;;;;;;2.15;1.95;;;;;;;-3.60;100.00;99585.94;5092207;28;20544;-78
2024/01/18 04:39:22;;;;;;;3.55;2.30;;;;;;;-3.62;100.00;99588.19;5075683;28;20111;-78
2024/01/18 04:41:49;;;;;;;3.53;1.95;;;;;;;-3.67;100.00;99591.16;5090563;28;20055;-79
2024/01/18 04:44:15;;;;;;;3.25;2.00;;;;;;;-3.70;100.00;99588.16;5109022;28;20132;-79
2024/01/18 04:46:42;;;;;;;4.07;1.83;;;;;;;-3.72;100.00;99579.25;5104763;28;20044;-78
2024/01/18 04:49:08;;;;;;;2.45;2.25;;;;;;;-3.72;100.00;99595.59;5090725;28;20060;-79
2024/01/18 04:51:35;;;;;;;3.42;2.60;;;;;;;-3.75;100.00;99601.53;5089787;28;20849;-78
2024/01/18 04:54:02;;;;;;;3.63;2.45;;;;;;;-3.75;100.00;99611.19;5109706;28;20059;-78
2024/01/18 04:56:28;;;;;;;3.78;2.22;;;;;;;-3.80;100.00;99616.75;5117600;28;20041;-78
2024/01/18 04:58:56;;;;;;;3.25;2.35;;;;;;;-3.85;100.00;99617.88;5126282;28;20037;-78
2024/01/18 05:01:22;;;;;;;2.50;2.13;;;;;;;-3.82;100.00;99622.31;5122448;28;20096;-77
2024/01/18 05:03:49;;;;;;;5.65;2.78;;;;;;;-3.82;100.00;99624.19;5112298;28;20044;-77
2024/01/18 05:06:15;;;;;;;2.90;1.98;;;;;;;-3.87;100.00;99633.09;5108215;28;20533;-77
2024/01/18 05:08:43;;;;;;;3.67;2.20;;;;;;;-3.86;100.00;99639.03;5092587;28;20048;-77
2024/01/18 05:11:10;;;;;;;3.58;2.17;;;;;;;-3.88;100.00;99633.44;5107788;28;20056;-77
2024/01/18 05:13:36;;;;;;;2.88;1.98;;;;;;;-3.93;100.00;99624.16;5105654;28;20044;-77
2024/01/18 05:16:04;;;;;;;2.78;2.22;;;;;;;-3.98;100.00;99629.72;5088675;28;20551;-77
2024/01/18 05:18:30;;;;;;;2.65;2.10;;;;;;;-4.02;100.00;99631.59;5108635;28;20051;-77
2024/01/18 05:20:57;;;;;;;2.92;2.63;;;;;;;-4.01;100.00;99634.94;5108390;28;20045;-77
2024/01/18 05:23:24;;;;;;;4.38;2.45;;;;;;;-4.01;100.00;99634.94;5107775;28;20051;-77
2024/01/18 05:25:50;;;;;;;2.72;2.40;;;;;;;-4.06;100.00;99633.41;5107279;28;20067;-77
2024/01/18 05:28:17;;;;;;;3.97;2.50;;;;;;;-4.07;100.00;99643.06;5111120;28;20050;-77
2024/01/18 05:30:43;;;;;;;4.53;3.25;;;;;;;-4.08;100.00;99640.84;5090008;28;20044;-77
2024/01/18 05:33:10;;;;;;;3.45;2.97;;;;;;;-4.10;100.00;99640.47;5111351;28;20048;-77
2024/01/18 05:35:37;;;;;;;4.10;2.90;;;;;;;-4.09;100.00;99647.16;5114154;28;20029;-77
2024/01/18 05:38:04;;;;;;;3.53;3.03;;;;;;;-4.15;100.00;99653.81;5106339;28;20121;-77
2024/01/18 05:40:30;;;;;;;4.80;3.10;;;;;;;-4.23;100.00;99657.50;5111755;28;20054;-78
2024/01/18 05:42:57;;;;;;;3.00;2.70;;;;;;;-4.23;100.00;99660.81;5107397;28;20043;-78
2024/01/18 05:45:23;;;;;;;5.88;2.67;;;;;;;-4.25;100.00;99670.09;5109087;28;20052;-78
2024/01/18 05:47:51;;;;;;;5.68;2.55;;;;;;;-4.26;100.00;99671.22;5113406;28;20036;-79
2024/01/18 05:50:18;;;;;;;6.47;2.88;;;;;;;-4.25;100.00;99675.28;5111151;28;20068;-79
2024/01/18 05:52:44;;;;;;;4.43;2.95;;;;;;;-4.30;100.00;99675.63;5112026;28;20553;-78
2024/01/18 05:55:11;;;;;;;6.85;3.10;;;;;;;-4.32;100.00;99672.66;5109859;28;20040;-78
2024/01/18 05:57:37;;;;;;;4.68;2.80;;;;;;;-4.32;100.00;99681.19;5089170;28;20136;-77
2024/01/18 06:00:06;;;;;;;4.22;2.35;;;;;;;-4.37;100.00;99686.75;5105082;28;20052;-78
2024/01/18 06:02:32;;;;;;;2.40;2.20;;;;;;;-4.41;100.00;99684.16;5108822;28;20808;-78
2024/01/18 06:05:00;;;;;;;3.53;2.33;;;;;;;-4.45;100.00;99685.22;5109989;28;20185;-78
2024/01/18 06:07:27;;;;;;;4.55;2.03;;;;;;;-4.47;100.00;99693.38;5086494;28;20553;-78
2024/01/18 06:09:54;;;;;;;3.10;2.03;;;;;;;-4.50;100.00;99693.38;5105865;28;20530;-79
2024/01/18 06:12:20;;;;;;;2.20;1.83;;;;;;;-4.54;100.00;99703.00;5111431;28;20048;-79
2024/01/18 06:14:47;;;;;;;6.57;2.88;;;;;;;-4.59;100.00;99708.53;5087631;28;20150;-78
2024/01/18 06:17:13;;;;;;;3.42;2.30;;;;;;;-4.61;100.00;99716.66;5090186;28;20044;-79
2024/01/18 06:19:41;;;;;;;2.92;1.88;;;;;;;-4.62;100.00;99710.00;5094033;28;20578;-78
2024/01/18 06:22:08;;;;;;;3.38;2.70;;;;;;;-4.59;100.00;99711.88;5108203;28;20051;-78
2024/01/18 06:24:35;;;;;;;4.82;3.08;;;;;;;-4.60;100.00;99720.75;5088729;28;20535;-76
2024/01/18 06:27:02;;;;;;;3.10;2.33;;;;;;;-4.62;100.00;99720.38;5104420;28;20061;-77
2024/01/18 06:29:30;;;;;;;5.75;3.33;;;;;;;-4.64;100.00;99727.78;5107929;28;20106;-77
2024/01/18 06:31:57;;;;;;;11.80;5.57;;;;;;;-4.65;100.00;99730.75;5110216;28;20078;-77
2024/01/18 06:34:24;;;;;;;12.50;6.75;;;;;;;-4.67;100.00;99744.09;5111354;28;20059;-77
2024/01/18 06:36:51;;;;;;;14.02;7.13;;;;;;;-4.69;100.00;99735.91;5110870;28;20068;-77
2024/01/18 06:39:18;;;;;;;11.95;6.03;;;;;;;-4.69;100.00;99735.91;5110400;28;20040;-78
2024/01/18 06:41:44;;;;;;;8.57;5.40;;;;;;;-4.72;100.00;99744.41;5119448;28;20050;-78
2024/01/18 06:44:13;;;;;;;8.95;4.53;;;;;;;-4.79;100.00;99742.50;5118478;28;20071;-78
2024/01/18 06:46:40;;;;;;;4.63;3.70;;;;;;;-4.85;100.00;99743.97;5086922;28;20036;-78
2024/01/18 06:49:07;;;;;;;3.53;2.58;;;;;;;-4.85;100.00;99743.22;5130397;28;20074;-78
2024/01/18 06:51:33;;;;;;;6.70;2.25;;;;;;;-4.87;100.00;99740.97;5093315;28;20404;-78
2024/01/18 06:54:00;;;;;;;2.38;1.90;;;;;;;-4.88;100.00;99749.13;5108047;28;20619;-79
2024/01/18 06:56:27;;;;;;;3.85;2.25;;;;;;;-4.91;100.00;99747.25;5091582;28;20059;-79
2024/01/18 06:58:54;;;;;;;3.50;2.38;;;;;;;-4.91;100.00;99753.19;5114070;28;20064;-80
2024/01/18 07:01:20;;;;;;;2.97;2.17;;;;;;;-4.93;100.00;99763.19;5114426;28;20088;-80
2024/01/18 07:03:47;;;;;;;3.38;2.03;;;;;;;-4.90;100.00;99766.91;5117994;28;20033;-78
2024/01/18 07:06:14;;;;;;;5.07;2.47;;;;;;;-4.93;100.00;99765.78;5112896;28;20041;-78
2024/01/18 07:08:40;;;;;;;3.05;2.65;;;;;;;-4.96;100.00;99768.34;5114303;28;20097;-78
2024/01/18 07:11:07;;;;;;;2.72;2.15;;;;;;;-4.96;100.00;99782.06;5116441;28;20075;-78
2024/01/18 07:13:34;;;;;;;2.63;2.38;;;;;;;-4.99;100.00;99777.59;5100750;28;20140;-77
2024/01/18 07:16:00;;;;;;;3.63;2.08;;;;;;;-4.99;100.00;99792.41;5098382;28;20028;-78
2024/01/18 07:18:28;;;;;;;5.18;2.50;;;;;;;-4.97;100.00;99785.00;5102489;28;20043;-79
2024/01/18 07:20:56;;;;;;;2.47;2.28;;;;;;;-5.00;100.00;99783.88;5113690;28;20102;-77
2024/01/18 07:23:22;;;;;;;4.65;2.78;;;;;;;-5.05;100.00;99792.72;5108667;28;20045;-76
2024/01/18 07:25:50;;;;;;;2.58;1.98;;;;;;;-5.08;100.00;99796.03;5107880;28;20538;-79
2024/01/18 07:28:17;;;;;;;2.72;2.33;;;;;;;-5.10;100.00;99795.66;5111957;28;20037;-80
2024/01/18 07:30:44;;;;;;;3.47;2.50;;;;;;;-5.10;100.00;99797.50;5113997;28;20107;-80
2024/01/18 07:33:10;;;;;;;2.60;1.95;;;;;;;-5.10;100.00;99795.66;5096874;28;20036;-78
2024/01/18 07:35:37;;;;;;;5.10;3.25;;;;;;;-5.09;100.00;99794.53;5112409;28;20063;-79
2024/01/18 07:38:04;;;;;;;2.40;2.20;;;;;;;-5.12;100.00;99802.28;5117148;28;20108;-79
2024/01/18 07:40:30;;;;;;;4.50;2.45;;;;;;;-5.17;100.00;99803.34;5113441;28;20051;-78
2024/01/18 07:42:57;;;;;;;5.50;2.03;;;;;;;-5.18;100.00;99801.13;5107897;28;20047;-78
2024/01/18 07:45:24;;;;;;;10.27;2.00;;;;;;;-5.18;100.00;99806.31;5113119;28;20048;-79
2024/01/18 07:47:50;;;;;;;9.25;1.88;;;;;;;-5.16;100.00;99817.81;5114948;28;20824;-80
2024/01/18 07:50:17;;;;;;;4.90;2.28;;;;;;;-5.18;100.00;99809.66;5111501;28;20044;-80
2024/01/18 07:53:00;;;;;;;6.95;2.30;;;;;;;-5.20;100.00;99821.50;5122311;28;20044;-80
2024/01/18 07:55:28;;;;;;;6.50;2.53;;;;;;;-5.18;100.00;99817.44;5115297;28;20083;-79
2024/01/18 07:57:55;;;;;;;2.97;2.38;;;;;;;-5.15;100.00;99827.09;5107047;28;20032;-79
2024/01/18 08:00:24;;;;;;;8.32;2.70;;;;;;;-5.16;100.00;99836.00;5107004;28;20514;-78
2024/01/18 08:02:51;;;;;;;5.90;3.75;;;;;;;-5.15;100.00;99842.69;5107124;28;20053;-77
2024/01/18 08:05:19;;;;;;;4.85;3.53;;;;;;;-5.13;100.00;99844.91;5087155;28;20503;-77
2024/01/18 08:07:46;;;;;;;3.90;3.50;;;;;;;-5.12;100.00;99849.00;5087088;28;20439;-78
2024/01/18 08:10:12;;;;;;;8.13;4.88;;;;;;;-5.14;100.00;99854.56;5085010;28;20044;-78
2024/01/18 08:12:42;;;;;;;7.15;4.47;;;;;;;-5.09;100.00;99856.09;5103552;28;20052;-78
2024/01/18 08:15:11;;;;;;;9.88;4.22;;;;;;;-5.08;100.00;99863.53;5085617;28;20048;-78
2024/01/18 08:17:38;;;;;;;6.85;4.63;;;;;;;-5.06;100.00;99861.31;5106937;28;20542;-79
2024/01/18 08:20:12;;;;;;;7.78;4.25;;;;;;;-5.04;100.00;99860.97;5107446;28;20093;-78
2024/01/18 08:22:40;;;;;;;7.50;4.22;;;;;;;-5.04;100.00;99866.91;5101780;28;20056;-78
2024/01/18 08:25:08;;;;;;;9.15;4.70;;;;;;;-5.01;100.00;99870.63;5085261;28;20048;-79
2024/01/18 08:27:35;;;;;;;12.82;6.30;;;;;;;-5.01;100.00;99880.28;5110756;28;20078;-78
2024/01/18 08:30:07;;;;;;;12.20;7.38;;;;;;;-4.96;100.00;99885.16;5078218;28;20051;-79
2024/01/18 08:32:36;;;;;;;10.38;5.43;;;;;;;-4.92;100.00;99891.13;5102617;28;20119;-77
2024/01/18 08:35:07;;;;;;;8.13;4.85;;;;;;;-4.90;100.00;99891.53;5064679;28;20080;-79
2024/01/18 08:37:35;;;;;;;7.00;4.00;;;;;;;-4.88;100.00;99894.53;5101214;28;20494;-80
2024/01/18 08:40:03;;;;;;;5.38;3.97;;;;;;;-4.86;100.00;99900.09;5093210;28;20040;-82
2024/01/18 08:42:30;;;;;;;5.18;3.33;;;;;;;-4.82;100.00;99909.44;5072212;28;20479;-78
2024/01/18 08:44:57;;;;;;;4.25;3.53;;;;;;;-4.78;100.00;99912.78;5111307;28;20040;-79
2024/01/18 08:47:23;;;;;;;6.22;3.53;;;;;;;-4.73;100.00;99916.91;5103805;28;20092;-78
2024/01/18 08:49:50;;;;;;;5.60;2.92;;;;;;;-4.71;100.00;99918.06;5108779;28;20531;-79
2024/01/18 08:52:19;;;;;;;3.50;2.95;;;;;;;-4.68;100.00;99929.59;5108598;28;20043;-78
2024/01/18 08:54:49;;;;;;;4.07;3.08;;;;;;;-4.65;100.00;99922.94;5115934;28;20052;-78
2024/01/18 08:57:17;;;;;;;5.03;2.97;;;;;;;-4.65;100.00;99925.53;5112443;28;20041;-77
2024/01/18 08:59:45;;;;;;;4.35;2.85;;;;;;;-4.61;100.00;99928.91;5117368;28;20044;-78
2024/01/18 09:02:14;;;;;;;3.47;2.90;;;;;;;-4.53;100.00;99938.28;5112938;28;20069;-79
2024/01/18 09:04:50;;;;;;;3.63;2.30;;;;;;;-4.49;100.00;99944.25;5115109;28;20048;-77
2024/01/18 09:07:16;;;;;;;3.45;2.53;;;;;;;-4.46;100.00;99939.09;5081047;28;20532;-76
2024/01/18 09:09:44;;;;;;;2.80;2.30;;;;;;;-4.39;100.00;99944.34;5090085;28;20052;-76
2024/01/18 09:12:13;;;;;;;8.63;2.30;;;;;;;-4.33;100.00;99951.81;5094134;28;20052;-76
2024/01/18 09:14:39;;;;;;;2.40;2.10;;;;;;;-4.29;100.00;99948.16;5093365;28;20531;-79
2024/01/18 09:17:06;;;;;;;5.63;2.65;;;;;;;-4.21;100.00;99959.34;5087036;28;20067;-74
2024/01/18 09:19:33;;;;;;;2.50;2.30;;;;;;;-4.16;100.00;99962.38;5105515;28;20048;-77
2024/01/18 09:21:59;;;;;;;6.35;3.10;;;;;;;-4.08;100.00;99963.19;5101418;28;20045;-77
2024/01/18 09:24:26;;;;;;;2.72;2.35;;;;;;;-4.04;100.00;99966.56;5105872;28;20044;-77
2024/01/18 09:26:53;;;;;;;3.13;2.45;;;;;;;-3.97;100.00;99971.81;5081567;28;20058;-76
2024/01/18 09:29:19;;;;;;;2.47;2.28;;;;;;;-3.92;100.00;99975.94;5072180;28;20142;-79
2024/01/18 09:31:46;;;;;;;6.60;3.97;;;;;;;-3.86;100.00;99977.84;5102037;28;20051;-78
2024/01/18 09:34:13;;;;;;;4.45;3.13;;;;;;;-3.79;100.00;99990.91;5101682;28;20060;-77
2024/01/18 09:36:40;;;;;;;3.25;2.88;;;;;;;-3.70;100.00;99993.97;5102440;28;20102;-77
2024/01/18 09:39:15;;;;;;;8.02;3.63;;;;;;;-3.64;100.00;99998.84;5102418;27;20206;-77
2024/01/18 09:41:43;;;;;;;2.97;2.70;;;;;;;-3.59;100.00;100001.06;5113494;28;20029;-77
2024/01/18 09:44:13;;;;;;;2.70;2.50;;;;;;;-3.50;100.00;100007.47;5110963;28;20040;-79
2024/01/18 09:46:42;;;;;;;6.82;2.53;;;;;;;-3.41;100.00;100010.50;5117061;28;20044;-79
2024/01/18 09:49:09;;;;;;;4.60;3.15;;;;;;;-3.29;100.00;100013.94;5115782;28;20070;-83
2024/01/18 09:51:37;;;;;;;5.03;1.67;;;;;;;-3.23;100.00;100023.66;5094710;28;20102;-82
2024/01/18 09:54:04;;;;;;;3.03;2.05;;;;;;;-3.13;100.00;100033.34;5094977;28;20078;-80
2024/01/18 09:56:40;;;;;;;2.15;1.80;;;;;;;-3.00;100.00;100040.88;5112743;28;20048;-79
2024/01/18 09:59:07;;;;;;;1.58;1.52;;;;;;;-2.92;100.00;100045.00;5115158;28;20483;-78
2024/01/18 10:01:33;;;;;;;7.18;1.25;;;;;;;-2.87;100.00;100052.47;5114357;28;20094;-78
2024/01/18 10:04:00;;;;;;;4.20;1.67;;;;;;;-2.75;100.00;100059.97;5108400;28;20490;-78
2024/01/18 10:06:27;;;;;;;4.75;1.85;;;;;;;-2.57;100.00;100065.28;5106338;28;20039;-78
2024/01/18 10:08:54;;;;;;;1.88;1.38;;;;;;;-2.44;100.00;100069.81;5107419;28;20122;-77
2024/01/18 10:11:20;;;;;;;2.17;1.30;;;;;;;-2.32;100.00;100075.78;5088723;28;20057;-80
2024/01/18 10:13:54;;;;;;;2.65;1.77;;;;;;;-2.23;100.00;100070.97;5094655;28;20499;-81
2024/01/18 10:16:41;;;;;;;4.88;1.77;;;;;;;-2.17;100.00;100072.84;5091916;28;20048;-78
2024/01/18 10:19:14;;;;;;;4.93;1.45;;;;;;;-2.05;100.00;100079.59;5102435;28;20804;-79
2024/01/18 10:21:41;;;;;;;2.17;1.35;;;;;;;-1.98;100.00;100087.41;5095264;28;20138;-78
2024/01/18 10:24:14;;;;;;;1.65;1.55;;;;;;;-1.89;100.00;100089.66;5111958;28;20044;-78
2024/01/18 10:26:41;;;;;;;2.20;1.50;;;;;;;-1.78;100.00;100104.25;5120914;28;20036;-79
2024/01/18 10:29:09;;;;;;;2.28;1.60;;;;;;;-1.63;100.00;100099.78;5109878;28;20051;-79
2024/01/18 10:31:41;;;;;;;1.20;1.10;;;;;;;-1.55;100.00;100105.75;5092391;28;20056;-80
2024/01/18 10:34:09;;;;;;;4.85;1.50;;;;;;;-1.45;100.00;100105.75;5094102;28;20071;-80
2024/01/18 10:36:37;;;;;;;1.58;1.05;;;;;;;-1.36;100.00;100118.44;5112903;28;20047;-79
2024/01/18 10:39:20;;;;;;;2.13;1.27;;;;;;;-1.20;100.00;100112.84;5108769;28;20040;-79
2024/01/18 10:41:47;;;;;;;1.15;1.05;;;;;;;-1.07;100.00;100119.16;5085262;28;20132;-80
2024/01/18 10:44:15;;;;;;;1.42;1.15;;;;;;;-0.95;100.00;100118.78;5095681;28;20032;-79
2024/01/18 10:46:42;;;;;;;2.03;0.80;;;;;;;-0.78;100.00;100114.63;5108988;28;20048;-80
2024/01/18 10:49:10;;;;;;;0.98;0.70;;;;;;;-0.64;100.00;100119.84;5093789;28;20097;-80
2024/01/18 10:51:38;;;;;;;3.10;1.27;;;;;;;-0.48;100.00;100129.88;5117514;28;20054;-80
2024/01/18 10:54:08;;;;;;;6.38;1.77;;;;;;;-0.38;100.00;100129.84;5110267;28;20028;-80
2024/01/18 10:56:51;;;;;;;3.90;0.98;;;;;;;-0.30;100.00;100133.16;5094391;28;20045;-81
2024/01/18 10:59:20;;;;;;;8.02;1.10;;;;;;;-0.14;99.71;100151.06;5110863;28;20096;-81
2024/01/18 11:01:48;;;;;;;4.25;1.23;;;;;;;-0.04;99.23;100150.28;5112583;28;20082;-80
2024/01/18 11:04:16;;;;;;;2.80;2.00;;;;;;;0.06;98.67;100154.69;5115132;28;20055;-81
2024/01/18 11:06:44;;;;;;;4.65;1.52;;;;;;;0.04;98.19;100156.94;5113031;28;20047;-81
2024/01/18 11:09:12;;;;;;;2.00;1.55;;;;;;;0.05;98.51;100160.31;5107868;28;20096;-76
2024/01/18 11:11:40;;;;;;;2.85;1.63;;;;;;;0.03;98.81;100176.38;5108233;28;20056;-79
2024/01/18 11:14:08;;;;;;;2.63;1.80;;;;;;;-0.01;99.63;100181.66;5109453;28;20053;-80
2024/01/18 11:16:37;;;;;;;2.33;2.00;;;;;;;-0.03;100.00;100181.28;5106517;28;20064;-79
2024/01/18 11:19:04;;;;;;;4.68;2.17;;;;;;;-0.06;100.00;100194.41;5109707;28;20484;-79
2024/01/18 11:21:42;;;;;;;4.95;1.98;;;;;;;-0.11;100.00;100189.56;5109187;28;20096;-81
2024/01/18 11:24:10;;;;;;;6.70;2.10;;;;;;;-0.17;100.00;100188.44;5086319;28;21005;-75
2024/01/18 11:26:37;;;;;;;5.53;2.38;;;;;;;-0.22;100.00;100186.97;5087239;28;20572;-75